Time;durP1;ratioP1;P1;durP2;ratioP2;P2;SDS_P1;SDS_P2;PMS_P1;PMS_P2;Temp;Humidity;BMP_temperature;BMP_pressure;BME280_temperature;BME280_humidity;BME280_pressure;Samples;Min_cycle;Max_cycle;Signal;HPM_P1;HPM_P2
2024/03/06 00:00:59;;;;;;;0.40;0.20;;;;;;;;;;5086346;28;20377;-79
2024/03/06 00:03:25;;;;;;;0.20;0.10;;;;;;;;;;5086712;28;20063;-79
2024/03/06 00:05:51;;;;;;;0.20;0.10;;;;;;;;;;5094239;28;20518;-81
2024/03/06 00:08:17;;;;;;;1.00;0.85;;;;;;;;;;5101992;28;20032;-78
2024/03/06 00:10:45;;;;;;;0.20;0.10;;;;;;;;;;5096650;28;20039;-77
2024/03/06 00:13:11;;;;;;;0.20;0.05;;;;;;;;;;5093680;28;20050;-78
2024/03/06 00:15:37;;;;;;;1.05;0.90;;;;;;;;;;5101816;28;20056;-78
2024/03/06 00:18:03;;;;;;;0.20;0.10;;;;;;;;;;5091798;28;20044;-78
2024/03/06 00:20:29;;;;;;;0.75;0.35;;;;;;;;;;5086658;28;20048;-79
2024/03/06 00:22:55;;;;;;;0.20;0.10;;;;;;;;;;5095658;28;20055;-79
2024/03/06 00:25:23;;;;;;;0.20;0.00;;;;;;;;;;5095219;28;20070;-78
2024/03/06 00:27:49;;;;;;;0.20;0.08;;;;;;;;;;5110642;28;20040;-78
2024/03/06 00:30:15;;;;;;;0.20;0.10;;;;;;;;;;5094785;28;20067;-80
2024/03/06 00:32:41;;;;;;;0.20;0.08;;;;;;;;;;5077276;28;20119;-79
2024/03/06 00:35:08;;;;;;;0.25;0.20;;;;;;;;;;5103083;27;20075;-78
2024/03/06 00:37:34;;;;;;;0.20;0.10;;;;;;;;;;5096805;28;20123;-79
2024/03/06 00:40:00;;;;;;;0.40;0.40;;;;;;;;;;5091065;28;20072;-80
2024/03/06 00:42:26;;;;;;;0.20;0.00;;;;;;;;;;5082999;28;20044;-81
2024/03/06 00:44:52;;;;;;;0.20;0.08;;;;;;;;;;5080909;28;20036;-79
2024/03/06 00:47:18;;;;;;;0.20;0.10;;;;;;;;;;5095244;28;20110;-81
2024/03/06 00:49:44;;;;;;;0.20;0.10;;;;;;;;;;5083167;28;20047;-79
2024/03/06 00:52:11;;;;;;;0.20;0.00;;;;;;;;;;5103675;28;20039;-77
2024/03/06 00:54:37;;;;;;;0.20;0.00;;;;;;;;;;5098907;28;20131;-80
2024/03/06 00:57:03;;;;;;;0.20;0.10;;;;;;;;;;5087100;28;20013;-81
2024/03/06 00:59:29;;;;;;;0.55;0.50;;;;;;;;;;5095895;28;20059;-79
2024/03/06 01:01:56;;;;;;;0.20;0.00;;;;;;;;;;5078542;28;20047;-79
2024/03/06 01:04:22;;;;;;;0.20;0.10;;;;;;;;;;5078382;28;20528;-79
2024/03/06 01:06:48;;;;;;;0.38;0.20;;;;;;;;;;5080837;28;22634;-81
2024/03/06 01:09:14;;;;;;;0.20;0.10;;;;;;;;;;5093141;28;20039;-80
2024/03/06 01:11:40;;;;;;;0.20;0.10;;;;;;;;;;5095232;28;20092;-80
2024/03/06 01:14:06;;;;;;;0.43;0.20;;;;;;;;;;5079727;28;20036;-78
2024/03/06 01:16:32;;;;;;;0.20;0.10;;;;;;;;;;5085604;28;20240;-80
2024/03/06 01:18:58;;;;;;;0.20;0.08;;;;;;;;;;5104777;28;20043;-78
2024/03/06 01:21:24;;;;;;;0.30;0.20;;;;;;;;;;5094209;28;20720;-78
2024/03/06 01:23:51;;;;;;;0.20;0.10;;;;;;;;;;5098910;28;20047;-77
2024/03/06 01:26:16;;;;;;;0.57;0.30;;;;;;;;;;5109004;28;20044;-80
2024/03/06 01:28:43;;;;;;;0.20;0.00;;;;;;;;;;5081885;28;20103;-78
2024/03/06 01:31:08;;;;;;;0.20;0.10;;;;;;;;;;5109155;28;20056;-79
2024/03/06 01:33:35;;;;;;;0.20;0.00;;;;;;;;;;5085428;28;20131;-79
2024/03/06 01:36:01;;;;;;;0.52;0.30;;;;;;;;;;5090937;28;20059;-78
2024/03/06 01:38:27;;;;;;;0.20;0.00;;;;;;;;;;5097168;28;20043;-78
2024/03/06 01:40:53;;;;;;;0.20;0.10;;;;;;;;;;5108218;28;20032;-81
2024/03/06 01:43:20;;;;;;;0.20;0.10;;;;;;;;;;5096195;28;20036;-82
2024/03/06 01:45:47;;;;;;;0.20;0.10;;;;;;;;;;5085807;28;20020;-79
2024/03/06 01:48:14;;;;;;;0.20;0.10;;;;;;;;;;5096382;28;20029;-79
2024/03/06 01:50:40;;;;;;;0.20;0.00;;;;;;;;;;5081423;28;20084;-79
2024/03/06 01:53:06;;;;;;;0.20;0.05;;;;;;;;;;5081587;28;20036;-78
2024/03/06 01:55:32;;;;;;;0.20;0.10;;;;;;;;;;5105978;28;20082;-78
2024/03/06 01:57:58;;;;;;;0.20;0.10;;;;;;;;;;5097555;28;20051;-78
2024/03/06 02:00:24;;;;;;;0.20;0.10;;;;;;;;;;5098741;28;20467;-80
2024/03/06 02:02:50;;;;;;;0.20;0.10;;;;;;;;;;5096433;28;20071;-78
2024/03/06 02:05:16;;;;;;;0.20;0.10;;;;;;;;;;5100461;28;20048;-77
2024/03/06 02:07:43;;;;;;;0.20;0.10;;;;;;;;;;5106601;28;20040;-79
2024/03/06 02:10:09;;;;;;;0.20;0.10;;;;;;;;;;5100899;28;20127;-78
2024/03/06 02:12:36;;;;;;;0.20;0.10;;;;;;;;;;5107153;28;20039;-78
2024/03/06 02:15:03;;;;;;;0.20;0.00;;;;;;;;;;5102356;28;20549;-79
2024/03/06 02:17:29;;;;;;;0.20;0.10;;;;;;;;;;5090947;28;20091;-79
2024/03/06 02:19:58;;;;;;;0.20;0.10;;;;;;;;;;5100753;28;20036;-81
2024/03/06 02:22:24;;;;;;;0.20;0.10;;;;;;;;;;5088741;28;20044;-79
2024/03/06 02:24:50;;;;;;;0.20;0.10;;;;;;;;;;5098934;28;20105;-79
2024/03/06 02:27:16;;;;;;;0.20;0.10;;;;;;;;;;5095598;28;20072;-79
2024/03/06 02:29:43;;;;;;;0.20;0.10;;;;;;;;;;5101204;28;20036;-79
2024/03/06 02:32:09;;;;;;;0.20;0.10;;;;;;;;;;5104258;28;20040;-79
2024/03/06 02:34:35;;;;;;;0.20;0.10;;;;;;;;;;5102629;28;20043;-78
2024/03/06 02:37:01;;;;;;;0.20;0.10;;;;;;;;;;5108271;28;20020;-77
2024/03/06 02:39:27;;;;;;;0.20;0.10;;;;;;;;;;5105938;28;20019;-78
2024/03/06 02:41:53;;;;;;;0.20;0.10;;;;;;;;;;5100693;28;20036;-78
2024/03/06 02:44:20;;;;;;;0.20;0.10;;;;;;;;;;5102575;28;20044;-78
2024/03/06 02:46:49;;;;;;;0.20;0.00;;;;;;;;;;5101741;28;20047;-79
2024/03/06 02:49:19;;;;;;;0.20;0.10;;;;;;;;;;5108729;28;20036;-79
2024/03/06 02:51:45;;;;;;;0.20;0.10;;;;;;;;;;5104175;28;20032;-78
2024/03/06 02:54:11;;;;;;;0.20;0.10;;;;;;;;;;5082347;28;20036;-78
2024/03/06 02:56:37;;;;;;;0.20;0.00;;;;;;;;;;5106944;28;20099;-79
2024/03/06 02:59:04;;;;;;;0.20;0.00;;;;;;;;;;5099996;28;20020;-78
2024/03/06 03:01:30;;;;;;;0.20;0.10;;;;;;;;;;5104109;28;20049;-78
2024/03/06 03:03:56;;;;;;;0.20;0.10;;;;;;;;;;5094441;28;20036;-79
2024/03/06 03:06:26;;;;;;;0.20;0.10;;;;;;;;;;5100641;28;20042;-78
2024/03/06 03:08:52;;;;;;;0.20;0.10;;;;;;;;;;5107091;28;20040;-79
2024/03/06 03:11:18;;;;;;;0.20;0.15;;;;;;;;;;5103290;28;20036;-79
2024/03/06 03:13:44;;;;;;;0.20;0.10;;;;;;;;;;5095504;28;20420;-79
2024/03/06 03:16:17;;;;;;;0.20;0.10;;;;;;;;;;5105450;28;20067;-78
2024/03/06 03:18:43;;;;;;;0.43;0.20;;;;;;;;;;5122867;28;20039;-78
2024/03/06 03:21:10;;;;;;;0.20;0.10;;;;;;;;;;5099387;28;20052;-78
2024/03/06 03:23:39;;;;;;;0.20;0.00;;;;;;;;;;5104236;28;20044;-78
2024/03/06 03:26:05;;;;;;;0.25;0.15;;;;;;;;;;5103129;28;20035;-78
2024/03/06 03:28:32;;;;;;;3.45;0.35;;;;;;;;;;5102493;28;20036;-78
2024/03/06 03:30:58;;;;;;;0.20;0.10;;;;;;;;;;5108267;28;20254;-77
2024/03/06 03:33:24;;;;;;;0.20;0.10;;;;;;;;;;5108451;28;20040;-79
2024/03/06 03:35:51;;;;;;;0.20;0.10;;;;;;;;;;5104151;28;20040;-78
2024/03/06 03:38:18;;;;;;;0.20;0.10;;;;;;;;;;5102669;28;20028;-78
2024/03/06 03:40:44;;;;;;;0.20;0.20;;;;;;;;;;5102125;28;20032;-80
2024/03/06 03:43:10;;;;;;;0.20;0.20;;;;;;;;;;5102427;28;20076;-78
2024/03/06 03:45:36;;;;;;;0.20;0.10;;;;;;;;;;5104278;28;20043;-78
2024/03/06 03:48:02;;;;;;;0.20;0.10;;;;;;;;;;5100107;28;20057;-78
2024/03/06 03:50:29;;;;;;;0.20;0.10;;;;;;;;;;5098911;28;20041;-78
2024/03/06 03:52:57;;;;;;;0.20;0.00;;;;;;;;;;5102100;28;20089;-79
2024/03/06 03:55:24;;;;;;;0.20;0.10;;;;;;;;;;5098805;28;20040;-79
2024/03/06 03:57:49;;;;;;;0.20;0.10;;;;;;;;;;5096795;28;20036;-79
2024/03/06 04:00:16;;;;;;;1.00;0.50;;;;;;;;;;5107707;28;20027;-78
2024/03/06 04:02:42;;;;;;;0.20;0.10;;;;;;;;;;5104122;28;20035;-78
2024/03/06 04:05:09;;;;;;;0.20;0.10;;;;;;;;;;5098957;28;20040;-79
2024/03/06 04:07:35;;;;;;;0.20;0.10;;;;;;;;;;5096972;28;20036;-79
2024/03/06 04:10:02;;;;;;;0.20;0.10;;;;;;;;;;5102829;28;20058;-79
2024/03/06 04:12:28;;;;;;;0.20;0.00;;;;;;;;;;5098021;28;20040;-78
2024/03/06 04:14:54;;;;;;;0.20;0.05;;;;;;;;;;5103044;28;20046;-78
2024/03/06 04:17:20;;;;;;;0.20;0.10;;;;;;;;;;5101570;28;20533;-78
2024/03/06 04:19:48;;;;;;;0.20;0.20;;;;;;;;;;5094361;28;20066;-79
2024/03/06 04:22:14;;;;;;;0.20;0.10;;;;;;;;;;5087925;28;20039;-80
2024/03/06 04:24:42;;;;;;;0.20;0.10;;;;;;;;;;5093396;28;20055;-78
2024/03/06 04:27:08;;;;;;;0.20;0.10;;;;;;;;;;5090753;28;20051;-80
2024/03/06 04:29:34;;;;;;;0.20;0.10;;;;;;;;;;5088797;28;20043;-78
2024/03/06 04:32:00;;;;;;;0.20;0.00;;;;;;;;;;5074474;28;20040;-78
2024/03/06 04:34:26;;;;;;;0.20;0.00;;;;;;;;;;5081385;28;20063;-79
2024/03/06 04:36:52;;;;;;;0.20;0.10;;;;;;;;;;5097726;28;20029;-77
2024/03/06 04:39:18;;;;;;;0.20;0.10;;;;;;;;;;5100183;28;20059;-79
2024/03/06 04:41:44;;;;;;;0.20;0.10;;;;;;;;;;5097248;28;20100;-79
2024/03/06 04:44:10;;;;;;;0.20;0.10;;;;;;;;;;5101570;28;20150;-79
2024/03/06 04:46:36;;;;;;;0.40;0.38;;;;;;;;;;5097161;28;20071;-79
2024/03/06 04:49:03;;;;;;;0.20;0.00;;;;;;;;;;5085412;28;20058;-78
2024/03/06 04:51:29;;;;;;;0.20;0.10;;;;;;;;;;5096986;28;20036;-80
2024/03/06 04:53:55;;;;;;;0.20;0.10;;;;;;;;;;5073467;28;20038;-79
2024/03/06 04:56:22;;;;;;;0.30;0.15;;;;;;;;;;5073351;28;20032;-78
2024/03/06 04:58:48;;;;;;;0.20;0.10;;;;;;;;;;5087374;28;20397;-79
2024/03/06 05:01:14;;;;;;;0.20;0.10;;;;;;;;;;5096228;28;20047;-79
2024/03/06 05:03:40;;;;;;;0.20;0.10;;;;;;;;;;5088147;28;20033;-79
2024/03/06 05:06:06;;;;;;;0.20;0.10;;;;;;;;;;5088545;28;20040;-77
2024/03/06 05:08:33;;;;;;;0.20;0.10;;;;;;;;;;5091159;28;20032;-78
2024/03/06 05:11:02;;;;;;;0.20;0.10;;;;;;;;;;5094825;28;20445;-78
2024/03/06 05:13:28;;;;;;;0.20;0.20;;;;;;;;;;5104679;28;20050;-78
2024/03/06 05:15:54;;;;;;;0.20;0.10;;;;;;;;;;5091877;28;20159;-80
2024/03/06 05:18:20;;;;;;;0.20;0.00;;;;;;;;;;5097646;28;20040;-80
2024/03/06 05:20:47;;;;;;;0.20;0.10;;;;;;;;;;5098875;28;20043;-79
2024/03/06 05:23:14;;;;;;;0.20;0.10;;;;;;;;;;5099262;28;20036;-79
2024/03/06 05:25:41;;;;;;;0.20;0.10;;;;;;;;;;5095559;28;20116;-80
2024/03/06 05:28:07;;;;;;;0.22;0.15;;;;;;;;;;5098615;28;20050;-79
2024/03/06 05:30:33;;;;;;;0.20;0.10;;;;;;;;;;5098419;28;20057;-78
2024/03/06 05:32:59;;;;;;;0.20;0.10;;;;;;;;;;5105290;28;20027;-78
2024/03/06 05:35:25;;;;;;;0.20;0.10;;;;;;;;;;5113082;28;20031;-77
2024/03/06 05:37:51;;;;;;;0.30;0.30;;;;;;;;;;5106302;28;20036;-79
2024/03/06 05:40:17;;;;;;;0.20;0.10;;;;;;;;;;5089624;28;20016;-78
2024/03/06 05:42:43;;;;;;;0.20;0.10;;;;;;;;;;5102934;28;20041;-80
2024/03/06 05:45:12;;;;;;;0.20;0.10;;;;;;;;;;5102236;28;20086;-80
2024/03/06 05:47:38;;;;;;;0.20;0.10;;;;;;;;;;5083531;28;20020;-78
2024/03/06 05:50:05;;;;;;;0.20;0.03;;;;;;;;;;5100865;28;20038;-79
2024/03/06 05:52:32;;;;;;;0.20;0.17;;;;;;;;;;5099694;28;20032;-79
2024/03/06 05:54:58;;;;;;;0.20;0.00;;;;;;;;;;5093926;28;20329;-79
2024/03/06 05:57:24;;;;;;;0.20;0.10;;;;;;;;;;5078505;28;20040;-78
2024/03/06 05:59:50;;;;;;;0.20;0.10;;;;;;;;;;5101859;28;20035;-79
2024/03/06 06:02:16;;;;;;;0.20;0.10;;;;;;;;;;5096045;28;20036;-79
2024/03/06 06:04:43;;;;;;;0.20;0.10;;;;;;;;;;5103543;28;20012;-77
2024/03/06 06:07:09;;;;;;;0.20;0.10;;;;;;;;;;5104265;28;20050;-79
2024/03/06 06:09:35;;;;;;;0.20;0.10;;;;;;;;;;5102224;28;20049;-80
2024/03/06 06:12:01;;;;;;;0.20;0.10;;;;;;;;;;5111747;22;20059;-86
2024/03/06 06:14:32;;;;;;;0.20;0.17;;;;;;;;;;5061116;28;20040;-86
2024/03/06 06:17:15;;;;;;;0.20;0.08;;;;;;;;;;5076812;28;20048;-86
2024/03/06 06:19:50;;;;;;;1.00;0.55;;;;;;;;;;5059191;28;20307;-86
2024/03/06 06:22:18;;;;;;;0.20;0.10;;;;;;;;;;5056770;28;20041;-86
2024/03/06 06:24:46;;;;;;;0.47;0.35;;;;;;;;;;5054809;28;20446;-86
2024/03/06 06:27:22;;;;;;;0.20;0.10;;;;;;;;;;5055587;28;20036;-85
2024/03/06 06:30:01;;;;;;;;;;;;;;;;;;;;;
2024/03/06 06:32:34;;;;;;;0.20;0.10;;;;;;;;;;5072698;28;20040;-86
2024/03/06 06:35:03;;;;;;;2.75;0.40;;;;;;;;;;5071969;28;20472;-86
2024/03/06 06:37:33;;;;;;;0.20;0.10;;;;;;;;;;5060317;28;20040;-88
2024/03/06 06:40:22;;;;;;;0.20;0.10;;;;;;;;;;5050889;28;20040;-87
2024/03/06 06:42:51;;;;;;;0.20;0.00;;;;;;;;;;5050938;28;20044;-86
2024/03/06 06:48:22;;;;;;;0.20;0.10;;;;;;;;;;5060762;28;20036;-85
2024/03/06 06:51:33;;;;;;;;;;;;;;;;;;;;;
2024/03/06 06:54:34;;;;;;;0.20;0.10;;;;;;;;;;5070935;28;20044;-86
2024/03/06 06:57:06;;;;;;;0.20;0.08;;;;;;;;;;5072568;28;20079;-85
2024/03/06 06:59:35;;;;;;;0.20;0.10;;;;;;;;;;5059238;28;20042;-86
2024/03/06 07:02:02;;;;;;;0.30;0.30;;;;;;;;;;5075512;28;20109;-85
2024/03/06 07:04:31;;;;;;;0.20;0.10;;;;;;;;;;5054515;28;20665;-85
2024/03/06 07:06:58;;;;;;;0.20;0.10;;;;;;;;;;5058041;28;20075;-86
2024/03/06 07:09:31;;;;;;;0.20;0.10;;;;;;;;;;5072281;28;20048;-87
2024/03/06 07:12:00;;;;;;;0.20;0.20;;;;;;;;;;5070177;28;20039;-86
2024/03/06 07:14:26;;;;;;;0.20;0.08;;;;;;;;;;5052519;28;20079;-85
2024/03/06 07:16:52;;;;;;;0.20;0.00;;;;;;;;;;5055657;28;20048;-85
2024/03/06 07:19:38;;;;;;;0.22;0.15;;;;;;;;;;5068913;28;20071;-86
2024/03/06 07:22:05;;;;;;;0.30;0.25;;;;;;;;;;5066966;28;20431;-83
2024/03/06 07:24:31;;;;;;;0.20;0.10;;;;;;;;;;5090470;28;20506;-86
2024/03/06 07:27:04;;;;;;;0.20;0.17;;;;;;;;;;5055879;28;20036;-86
2024/03/06 07:29:33;;;;;;;0.20;0.10;;;;;;;;;;5049069;28;20036;-89
2024/03/06 07:32:05;;;;;;;0.20;0.10;;;;;;;;;;5061997;28;20048;-87
2024/03/06 07:34:34;;;;;;;0.20;0.10;;;;;;;;;;5048491;28;20507;-86
2024/03/06 07:37:04;;;;;;;0.20;0.10;;;;;;;;;;5053031;28;20036;-83
2024/03/06 07:39:35;;;;;;;0.20;0.10;;;;;;;;;;5065287;28;20040;-85
2024/03/06 07:42:05;;;;;;;0.28;0.25;;;;;;;;;;5063349;28;20113;-86
2024/03/06 07:44:31;;;;;;;0.20;0.10;;;;;;;;;;5066215;28;20040;-85
2024/03/06 07:46:57;;;;;;;0.20;0.10;;;;;;;;;;5055019;28;20044;-85
2024/03/06 07:49:45;;;;;;;0.20;0.00;;;;;;;;;;5075037;28;20042;-87
2024/03/06 07:52:18;;;;;;;0.90;0.80;;;;;;;;;;5056469;28;20050;-85
2024/03/06 07:54:44;;;;;;;0.20;0.10;;;;;;;;;;5056717;28;20126;-86
2024/03/06 07:57:16;;;;;;;0.20;0.10;;;;;;;;;;5053208;28;20036;-87
2024/03/06 07:59:45;;;;;;;1.55;0.32;;;;;;;;;;5054301;28;20382;-85
2024/03/06 08:02:14;;;;;;;0.20;0.10;;;;;;;;;;5071935;28;20032;-87
2024/03/06 08:04:40;;;;;;;0.20;0.10;;;;;;;;;;5076124;28;20044;-85
2024/03/06 08:07:10;;;;;;;0.20;0.10;;;;;;;;;;5049983;28;20090;-86
2024/03/06 08:09:43;;;;;;;0.20;0.10;;;;;;;;;;5078084;28;20044;-85
2024/03/06 08:12:12;;;;;;;0.20;0.13;;;;;;;;;;5049474;28;20040;-85
2024/03/06 08:14:41;;;;;;;0.25;0.25;;;;;;;;;;5053002;28;20413;-86
2024/03/06 08:17:07;;;;;;;0.20;0.10;;;;;;;;;;5055453;28;20515;-85
2024/03/06 08:19:33;;;;;;;0.22;0.22;;;;;;;;;;5052342;28;20124;-86
2024/03/06 08:22:18;;;;;;;2.00;0.32;;;;;;;;;;5071191;28;20575;-87
2024/03/06 08:24:48;;;;;;;0.20;0.10;;;;;;;;;;5051000;28;20077;-88
2024/03/06 08:27:14;;;;;;;0.47;0.47;;;;;;;;;;5070626;28;20043;-85
2024/03/06 08:29:49;;;;;;;0.20;0.10;;;;;;;;;;5053391;28;20074;-86
2024/03/06 08:32:18;;;;;;;0.20;0.10;;;;;;;;;;5049695;28;20066;-86
2024/03/06 08:34:44;;;;;;;0.20;0.10;;;;;;;;;;5051130;28;20041;-87
2024/03/06 08:37:17;;;;;;;0.20;0.05;;;;;;;;;;5057041;28;20432;-86
2024/03/06 08:39:44;;;;;;;0.20;0.10;;;;;;;;;;5059742;28;20051;-86
2024/03/06 08:42:12;;;;;;;0.20;0.00;;;;;;;;;;5056672;28;20044;-86
2024/03/06 08:44:43;;;;;;;0.20;0.10;;;;;;;;;;5065223;28;20048;-87
2024/03/06 08:47:09;;;;;;;0.20;0.10;;;;;;;;;;5065776;28;20048;-85
2024/03/06 08:49:40;;;;;;;0.20;0.10;;;;;;;;;;5070666;28;20081;-87
2024/03/06 08:52:07;;;;;;;0.20;0.10;;;;;;;;;;5055984;28;20103;-85
2024/03/06 08:54:33;;;;;;;0.43;0.30;;;;;;;;;;5058786;28;20039;-86
2024/03/06 08:57:02;;;;;;;0.20;0.10;;;;;;;;;;5049744;28;20052;-87
2024/03/06 08:59:29;;;;;;;0.20;0.10;;;;;;;;;;5076572;28;20343;-87
2024/03/06 09:02:01;;;;;;;0.20;0.10;;;;;;;;;;5049709;28;20033;-87
2024/03/06 09:04:27;;;;;;;0.20;0.17;;;;;;;;;;5052912;28;20429;-86
2024/03/06 09:06:56;;;;;;;0.20;0.00;;;;;;;;;;5054599;28;20365;-87
2024/03/06 09:09:24;;;;;;;0.20;0.10;;;;;;;;;;5059620;28;20046;-87
2024/03/06 09:12:04;;;;;;;0.20;0.20;;;;;;;;;;5061196;28;20032;-88
2024/03/06 09:14:30;;;;;;;0.20;0.10;;;;;;;;;;5075291;28;20115;-87
2024/03/06 09:16:56;;;;;;;0.20;0.03;;;;;;;;;;5059286;28;20052;-86
2024/03/06 09:19:25;;;;;;;0.40;0.10;;;;;;;;;;5059135;28;20048;-86
2024/03/06 09:21:54;;;;;;;0.20;0.10;;;;;;;;;;5075436;28;20098;-86
2024/03/06 09:24:21;;;;;;;0.20;0.20;;;;;;;;;;5062990;28;20071;-87
2024/03/06 09:26:48;;;;;;;0.20;0.20;;;;;;;;;;5057341;28;20040;-85
2024/03/06 09:29:14;;;;;;;0.93;0.75;;;;;;;;;;5058508;28;20040;-88
2024/03/06 09:31:40;;;;;;;0.20;0.10;;;;;;;;;;5057211;28;20040;-85
2024/03/06 09:34:06;;;;;;;0.20;0.10;;;;;;;;;;5078355;28;20570;-87
2024/03/06 09:36:52;;;;;;;0.20;0.10;;;;;;;;;;5063174;28;20060;-87
2024/03/06 09:39:27;;;;;;;0.20;0.10;;;;;;;;;;5058071;28;20032;-86
2024/03/06 09:41:56;;;;;;;0.20;0.08;;;;;;;;;;5061673;28;20044;-87
2024/03/06 09:44:23;;;;;;;0.20;0.10;;;;;;;;;;5077069;28;20051;-87
2024/03/06 09:46:49;;;;;;;0.20;0.10;;;;;;;;;;5080091;28;20078;-86
2024/03/06 09:49:19;;;;;;;0.20;0.10;;;;;;;;;;5061437;28;20072;-87
2024/03/06 09:51:47;;;;;;;0.20;0.10;;;;;;;;;;5057078;28;20085;-86
2024/03/06 09:54:26;;;;;;;0.20;0.10;;;;;;;;;;5060494;28;20054;-88
2024/03/06 09:56:57;;;;;;;0.20;0.10;;;;;;;;;;5058970;28;20043;-88
2024/03/06 09:59:28;;;;;;;0.20;0.15;;;;;;;;;;5054986;28;20061;-86
2024/03/06 10:01:55;;;;;;;0.20;0.10;;;;;;;;;;5072129;28;20091;-87
2024/03/06 10:04:22;;;;;;;0.20;0.17;;;;;;;;;;5051148;28;20040;-87
2024/03/06 10:06:49;;;;;;;0.20;0.10;;;;;;;;;;5067568;28;20071;-87
2024/03/06 10:09:19;;;;;;;0.20;0.10;;;;;;;;;;5058904;28;20044;-86
2024/03/06 10:11:53;;;;;;;0.20;0.10;;;;;;;;;;5060795;28;20046;-86
2024/03/06 10:14:19;;;;;;;0.20;0.10;;;;;;;;;;5070232;28;20573;-86
2024/03/06 10:17:00;;;;;;;0.20;0.15;;;;;;;;;;5051996;28;20047;-86
2024/03/06 10:19:28;;;;;;;0.20;0.00;;;;;;;;;;5056933;28;20089;-86
2024/03/06 10:21:54;;;;;;;0.28;0.17;;;;;;;;;;5052579;28;20040;-87
2024/03/06 10:24:30;;;;;;;0.25;0.15;;;;;;;;;;5063990;28;20435;-87
2024/03/06 10:26:58;;;;;;;0.20;0.10;;;;;;;;;;5062144;28;20131;-86
2024/03/06 10:29:25;;;;;;;0.20;0.10;;;;;;;;;;5074035;28;20511;-86
2024/03/06 10:32:07;;;;;;;0.20;0.10;;;;;;;;;;5069127;28;20036;-88
2024/03/06 10:34:33;;;;;;;0.20;0.10;;;;;;;;;;5071743;28;20048;-85
2024/03/06 10:37:06;;;;;;;0.20;0.13;;;;;;;;;;5070300;28;20048;-87
2024/03/06 10:42:47;;;;;;;0.20;0.10;;;;;;;;;;5073244;28;20071;-86
2024/03/06 10:45:17;;;;;;;0.40;0.40;;;;;;;;;;5046722;28;20036;-88
2024/03/06 10:47:49;;;;;;;0.20;0.15;;;;;;;;;;5047927;28;20048;-87
2024/03/06 10:50:16;;;;;;;0.85;0.85;;;;;;;;;;5063559;28;20048;-87
2024/03/06 10:52:42;;;;;;;0.20;0.10;;;;;;;;;;5048651;28;20090;-87
2024/03/06 10:55:10;;;;;;;0.20;0.10;;;;;;;;;;5065562;28;20048;-86
2024/03/06 10:57:39;;;;;;;0.20;0.10;;;;;;;;;;5052950;28;20496;-86
2024/03/06 11:00:15;;;;;;;0.20;0.10;;;;;;;;;;5070594;28;20078;-88
2024/03/06 11:02:52;;;;;;;0.20;0.10;;;;;;;;;;5045976;28;20044;-86
2024/03/06 11:05:24;;;;;;;0.20;0.10;;;;;;;;;;5055126;28;20079;-86
2024/03/06 11:07:52;;;;;;;0.25;0.20;;;;;;;;;;5063009;28;20047;-87
2024/03/06 11:10:33;;;;;;;0.20;0.10;;;;;;;;;;5071157;28;20040;-87
2024/03/06 11:12:59;;;;;;;0.20;0.10;;;;;;;;;;5065662;28;20138;-87
2024/03/06 11:15:25;;;;;;;0.38;0.32;;;;;;;;;;5069565;28;20048;-86
2024/03/06 11:17:54;;;;;;;0.30;0.30;;;;;;;;;;5069310;28;20401;-87
2024/03/06 11:20:33;;;;;;;0.57;0.57;;;;;;;;;;5049600;28;20032;-87
2024/03/06 11:23:08;;;;;;;0.20;0.10;;;;;;;;;;5063912;28;21422;-88
2024/03/06 11:25:55;;;;;;;0.45;0.45;;;;;;;;;;5075598;28;20515;-87
2024/03/06 11:28:28;;;;;;;0.45;0.40;;;;;;;;;;5056173;28;20036;-87
2024/03/06 11:31:06;;;;;;;0.20;0.10;;;;;;;;;;5065167;28;20144;-87
2024/03/06 11:33:41;;;;;;;0.20;0.10;;;;;;;;;;5057893;28;20064;-87
2024/03/06 11:36:21;;;;;;;0.25;0.17;;;;;;;;;;5053812;28;20077;-87
2024/03/06 11:39:00;;;;;;;0.40;0.40;;;;;;;;;;5061470;28;20041;-88
2024/03/06 11:41:27;;;;;;;0.90;0.30;;;;;;;;;;5043316;28;20443;-86
2024/03/06 11:43:55;;;;;;;3.40;0.57;;;;;;;;;;5049498;28;20032;-86
2024/03/06 11:46:42;;;;;;;0.25;0.17;;;;;;;;;;5088284;28;20074;-87
2024/03/06 11:49:24;;;;;;;0.20;0.10;;;;;;;;;;5050749;28;20040;-87
2024/03/06 11:51:53;;;;;;;0.20;0.10;;;;;;;;;;5048306;28;20032;-88
2024/03/06 11:54:29;;;;;;;0.20;0.10;;;;;;;;;;5045610;28;20133;-86
2024/03/06 11:56:59;;;;;;;0.30;0.30;;;;;;;;;;5055973;28;20480;-86
2024/03/06 11:59:26;;;;;;;0.20;0.10;;;;;;;;;;5050986;28;20047;-88
2024/03/06 12:02:04;;;;;;;1.23;0.73;;;;;;;;;;5051686;28;20143;-87
2024/03/06 12:05:02;;;;;;;0.25;0.17;;;;;;;;;;5064922;28;20058;-88
2024/03/06 12:07:31;;;;;;;0.32;0.32;;;;;;;;;;5050774;28;20051;-87
2024/03/06 12:12:51;;;;;;;0.20;0.20;;;;;;;;;;5070230;22;20044;-81
2024/03/06 12:15:19;;;;;;;0.20;0.15;;;;;;;;;;5082591;28;20044;-82
2024/03/06 12:17:46;;;;;;;0.20;0.10;;;;;;;;;;5079285;28;20028;-81
2024/03/06 12:20:15;;;;;;;0.20;0.10;;;;;;;;;;5052879;28;20058;-81
2024/03/06 12:22:45;;;;;;;0.50;0.43;;;;;;;;;;5052813;28;20071;-81
2024/03/06 12:25:11;;;;;;;0.20;0.10;;;;;;;;;;5043854;28;20047;-81
2024/03/06 12:27:37;;;;;;;0.20;0.20;;;;;;;;;;5063855;28;20044;-80
2024/03/06 12:30:08;;;;;;;0.28;0.10;;;;;;;;;;5079316;28;20086;-81
2024/03/06 12:32:34;;;;;;;0.30;0.20;;;;;;;;;;5056575;28;20033;-81
2024/03/06 12:35:00;;;;;;;1.20;0.47;;;;;;;;;;5067306;28;20044;-81
2024/03/06 12:37:33;;;;;;;0.20;0.08;;;;;;;;;;5059165;28;20119;-81
2024/03/06 12:39:59;;;;;;;0.20;0.10;;;;;;;;;;5064437;28;20133;-81
2024/03/06 12:42:25;;;;;;;0.25;0.25;;;;;;;;;;5060434;28;20040;-81
2024/03/06 12:44:51;;;;;;;0.20;0.10;;;;;;;;;;5086918;28;20028;-82
2024/03/06 12:47:17;;;;;;;0.20;0.10;;;;;;;;;;5073867;28;20048;-82
2024/03/06 12:49:43;;;;;;;0.20;0.10;;;;;;;;;;5080938;28;20039;-81
2024/03/06 12:52:09;;;;;;;0.60;0.60;;;;;;;;;;5079518;28;20032;-81
2024/03/06 12:54:35;;;;;;;0.20;0.10;;;;;;;;;;5073773;28;20052;-81
2024/03/06 12:57:02;;;;;;;0.38;0.38;;;;;;;;;;5074959;28;20194;-81
2024/03/06 12:59:28;;;;;;;0.32;0.32;;;;;;;;;;5077962;28;20065;-81
2024/03/06 13:01:54;;;;;;;0.20;0.10;;;;;;;;;;5086786;28;20036;-82
2024/03/06 13:04:20;;;;;;;0.20;0.17;;;;;;;;;;5083267;28;20090;-81
2024/03/06 13:06:46;;;;;;;0.20;0.10;;;;;;;;;;5080154;28;20028;-83
2024/03/06 13:09:13;;;;;;;0.30;0.30;;;;;;;;;;5080134;28;20392;-81
2024/03/06 13:11:39;;;;;;;0.30;0.30;;;;;;;;;;5073980;28;20044;-83
2024/03/06 13:14:05;;;;;;;0.20;0.03;;;;;;;;;;5057389;28;20040;-82
2024/03/06 13:16:31;;;;;;;0.20;0.10;;;;;;;;;;5074771;28;20091;-81
2024/03/06 13:18:59;;;;;;;9.32;0.50;;;;;;;;;;5077484;28;20033;-81
2024/03/06 13:21:26;;;;;;;0.20;0.10;;;;;;;;;;5081624;28;20020;-81
2024/03/06 13:23:52;;;;;;;0.70;0.17;;;;;;;;;;5067774;28;20037;-80
2024/03/06 13:26:18;;;;;;;0.20;0.10;;;;;;;;;;5061490;28;20135;-82
2024/03/06 13:28:44;;;;;;;0.20;0.10;;;;;;;;;;5040183;28;20045;-81
2024/03/06 13:31:10;;;;;;;0.20;0.15;;;;;;;;;;5056763;28;20036;-81
2024/03/06 13:33:36;;;;;;;0.43;0.43;;;;;;;;;;5072240;28;20032;-80
2024/03/06 13:36:03;;;;;;;0.20;0.03;;;;;;;;;;5080424;28;20032;-82
2024/03/06 13:38:29;;;;;;;1.52;0.35;;;;;;;;;;5076409;28;20037;-81
2024/03/06 13:40:55;;;;;;;0.20;0.00;;;;;;;;;;5082396;28;20029;-82
2024/03/06 13:43:23;;;;;;;0.28;0.17;;;;;;;;;;5077616;28;20033;-80
2024/03/06 13:45:50;;;;;;;0.20;0.10;;;;;;;;;;5049090;28;20067;-81
2024/03/06 13:48:16;;;;;;;0.40;0.40;;;;;;;;;;5080241;28;20021;-81
2024/03/06 13:50:47;;;;;;;0.20;0.08;;;;;;;;;;5064568;28;20037;-82
2024/03/06 13:53:13;;;;;;;0.60;0.40;;;;;;;;;;5084505;28;20036;-83
2024/03/06 13:55:40;;;;;;;1.10;0.38;;;;;;;;;;5048182;28;20083;-81
2024/03/06 13:58:06;;;;;;;0.43;0.30;;;;;;;;;;5067219;28;20036;-81
2024/03/06 14:00:34;;;;;;;0.20;0.10;;;;;;;;;;5085547;28;20044;-81
2024/03/06 14:03:00;;;;;;;0.40;0.30;;;;;;;;;;5062232;28;20115;-82
2024/03/06 14:05:27;;;;;;;0.20;0.10;;;;;;;;;;5084759;28;20036;-82
2024/03/06 14:07:53;;;;;;;1.58;0.75;;;;;;;;;;5081571;28;20040;-81
2024/03/06 14:10:21;;;;;;;0.30;0.30;;;;;;;;;;5066830;28;20036;-83
2024/03/06 14:12:47;;;;;;;0.20;0.10;;;;;;;;;;5047448;28;20051;-82
2024/03/06 14:15:15;;;;;;;0.20;0.20;;;;;;;;;;5053947;28;20051;-81
2024/03/06 14:17:41;;;;;;;0.65;0.22;;;;;;;;;;5082220;28;20037;-82
2024/03/06 14:20:07;;;;;;;0.20;0.10;;;;;;;;;;5050268;28;20044;-81
2024/03/06 14:22:33;;;;;;;0.25;0.25;;;;;;;;;;5080026;28;20072;-82
2024/03/06 14:24:59;;;;;;;0.30;0.20;;;;;;;;;;5083700;28;20048;-83
2024/03/06 14:27:25;;;;;;;0.30;0.17;;;;;;;;;;5081841;28;20045;-81
2024/03/06 14:29:53;;;;;;;0.20;0.10;;;;;;;;;;5055181;28;20036;-81
2024/03/06 14:32:20;;;;;;;0.20;0.00;;;;;;;;;;5065222;28;20037;-82
2024/03/06 14:34:47;;;;;;;0.28;0.20;;;;;;;;;;5072107;28;20040;-82
2024/03/06 14:37:13;;;;;;;0.20;0.10;;;;;;;;;;5053789;28;20040;-81
2024/03/06 14:39:40;;;;;;;0.20;0.10;;;;;;;;;;5082783;28;20041;-83
2024/03/06 14:42:06;;;;;;;0.43;0.43;;;;;;;;;;5082566;28;20044;-82
2024/03/06 14:44:32;;;;;;;0.20;0.10;;;;;;;;;;5061649;28;20040;-81
2024/03/06 14:46:58;;;;;;;0.20;0.10;;;;;;;;;;5065464;28;20048;-81
2024/03/06 14:49:25;;;;;;;0.52;0.52;;;;;;;;;;5082500;28;20033;-81
2024/03/06 14:51:51;;;;;;;0.20;0.10;;;;;;;;;;5078357;28;20092;-83
2024/03/06 14:54:17;;;;;;;0.20;0.10;;;;;;;;;;5082352;28;20040;-82
2024/03/06 14:56:43;;;;;;;0.77;0.55;;;;;;;;;;5084929;28;20087;-81
2024/03/06 14:59:09;;;;;;;0.68;0.68;;;;;;;;;;5056318;28;20025;-82
2024/03/06 15:01:37;;;;;;;0.20;0.10;;;;;;;;;;5051827;28;20051;-82